Time;durP1;ratioP1;P1;durP2;ratioP2;P2;SDS_P1;SDS_P2;PMS_P1;PMS_P2;Temp;Humidity;BMP_temperature;BMP_pressure;BME280_temperature;BME280_humidity;BME280_pressure;Samples;Min_cycle;Max_cycle;Signal;HPM_P1;HPM_P2
2022/01/31 00:02:18;;;;;;;4.40;2.60;;;;;;;17.03;42.55;101348.22;5086404;28;20028;-52
2022/01/31 00:04:44;;;;;;;3.78;2.50;;;;;;;17.03;42.36;101332.09;5086389;28;20027;-49
2022/01/31 00:07:10;;;;;;;3.47;2.17;;;;;;;16.96;42.65;101329.16;5095065;28;20579;-52
2022/01/31 00:09:36;;;;;;;3.58;2.20;;;;;;;17.00;42.44;101333.25;5106206;28;20035;-51
2022/01/31 00:12:07;;;;;;;4.30;2.47;;;;;;;16.95;42.56;101309.53;5106002;28;20024;-49
2022/01/31 00:14:43;;;;;;;3.65;2.30;;;;;;;16.98;42.47;101308.38;5106816;28;20028;-48
2022/01/31 00:17:10;;;;;;;3.53;2.45;;;;;;;16.97;42.44;101304.00;5106776;28;20056;-51
2022/01/31 00:19:39;;;;;;;3.97;2.50;;;;;;;16.96;42.48;101273.59;5106778;28;20051;-51
2022/01/31 00:22:06;;;;;;;4.07;2.40;;;;;;;16.95;42.28;101261.19;5106120;28;20036;-51
2022/01/31 00:24:33;;;;;;;3.08;1.90;;;;;;;16.94;42.37;101237.97;5105823;28;20064;-52
2022/01/31 00:26:59;;;;;;;4.03;2.00;;;;;;;16.94;42.51;101216.50;5105724;28;20043;-51
2022/01/31 00:29:24;;;;;;;3.90;2.50;;;;;;;16.89;42.54;101191.06;5106249;28;20028;-50
2022/01/31 00:31:49;;;;;;;3.67;2.28;;;;;;;16.92;42.38;101183.56;5105808;28;20083;-52
2022/01/31 00:34:14;;;;;;;3.17;2.20;;;;;;;16.91;42.48;101167.63;5106010;28;20050;-51
2022/01/31 00:36:40;;;;;;;3.65;2.10;;;;;;;16.91;42.32;101181.88;5105655;28;20024;-52
2022/01/31 00:39:05;;;;;;;2.60;1.92;;;;;;;16.91;42.38;101167.63;5105934;28;20629;-52
2022/01/31 00:41:31;;;;;;;2.83;1.80;;;;;;;16.88;42.28;101152.63;5104684;28;20054;-52
2022/01/31 00:44:20;;;;;;;3.80;2.00;;;;;;;16.88;42.46;101144.59;5105871;28;20610;-51
2022/01/31 00:46:48;;;;;;;3.58;2.47;;;;;;;16.88;42.21;101133.84;5105374;28;20040;-51
2022/01/31 00:49:34;;;;;;;2.83;1.80;;;;;;;16.87;42.24;101123.25;5105974;28;20034;-51
2022/01/31 00:52:00;;;;;;;3.33;2.05;;;;;;;16.88;42.37;101114.19;5088237;28;20462;-51
2022/01/31 00:54:25;;;;;;;3.35;2.30;;;;;;;16.86;42.24;101097.38;5085127;28;20033;-50
2022/01/31 00:56:51;;;;;;;3.30;2.03;;;;;;;16.85;42.56;101085.78;5084957;28;20036;-49
2022/01/31 00:59:17;;;;;;;2.45;1.67;;;;;;;16.82;42.39;101077.19;5067557;28;20025;-50
2022/01/31 01:01:43;;;;;;;3.78;2.05;;;;;;;16.84;42.30;101062.63;5099407;28;20091;-48
2022/01/31 01:04:08;;;;;;;3.50;2.17;;;;;;;16.82;42.38;101047.66;5105521;28;20028;-50
2022/01/31 01:06:33;;;;;;;2.55;2.00;;;;;;;16.82;42.38;101045.84;5104751;28;20047;-49
2022/01/31 01:08:59;;;;;;;3.40;1.90;;;;;;;16.81;42.43;101049.50;5105526;28;20507;-49
2022/01/31 01:11:24;;;;;;;2.40;1.70;;;;;;;16.80;42.38;101039.75;5104656;28;20028;-48
2022/01/31 01:13:49;;;;;;;3.47;1.92;;;;;;;16.80;42.26;101020.97;5105448;28;20103;-47
2022/01/31 01:16:15;;;;;;;2.42;1.63;;;;;;;16.78;42.20;101017.59;5105458;28;20032;-49
2022/01/31 01:18:40;;;;;;;2.85;1.77;;;;;;;16.78;42.29;101004.16;5087085;28;20114;-48
2022/01/31 01:21:05;;;;;;;2.50;1.70;;;;;;;16.78;42.29;100993.44;5105211;28;20036;-51
2022/01/31 01:23:30;;;;;;;5.95;2.78;;;;;;;16.77;42.34;100986.34;5087151;28;20031;-46
2022/01/31 01:25:55;;;;;;;3.60;2.22;;;;;;;16.76;42.09;100975.78;5104113;28;20054;-49
2022/01/31 01:28:23;;;;;;;4.15;2.20;;;;;;;16.75;42.21;100966.88;5105328;28;20016;-47
2022/01/31 01:30:49;;;;;;;3.53;1.73;;;;;;;16.73;42.15;100958.13;5105063;28;20057;-47
2022/01/31 01:33:19;;;;;;;3.33;1.92;;;;;;;16.73;42.14;100953.59;5086332;28;20024;-47
2022/01/31 01:35:47;;;;;;;3.28;1.83;;;;;;;16.72;42.21;100946.53;5104781;28;20027;-51
2022/01/31 01:38:15;;;;;;;2.40;1.65;;;;;;;16.71;42.13;100936.78;5104681;28;20122;-46
2022/01/31 01:40:41;;;;;;;2.75;1.83;;;;;;;16.68;42.26;100929.00;5104346;28;20021;-47
2022/01/31 01:43:06;;;;;;;2.75;1.80;;;;;;;16.69;42.32;100919.13;5103568;28;20028;-47
2022/01/31 01:45:32;;;;;;;2.47;1.80;;;;;;;16.69;42.24;100914.63;5104741;28;20028;-49
2022/01/31 01:47:57;;;;;;;1.83;1.33;;;;;;;16.67;42.25;100903.16;5104741;28;20028;-49
2022/01/31 01:50:23;;;;;;;2.58;1.60;;;;;;;16.65;42.12;100896.25;5101215;28;20035;-49
2022/01/31 01:52:50;;;;;;;3.47;1.98;;;;;;;16.67;42.22;100886.22;5084153;28;20056;-52
2022/01/31 01:55:15;;;;;;;2.58;1.73;;;;;;;16.65;42.33;100877.47;5084017;28;20055;-52
2022/01/31 01:57:41;;;;;;;2.35;1.63;;;;;;;16.65;42.27;100874.78;5083687;28;20028;-50
2022/01/31 02:00:08;;;;;;;2.50;1.95;;;;;;;16.63;42.16;100858.84;5084134;28;20081;-50
2022/01/31 02:02:34;;;;;;;1.90;1.70;;;;;;;16.62;42.02;100849.09;5066265;28;20369;-47
2022/01/31 02:05:00;;;;;;;3.08;1.88;;;;;;;16.62;42.14;100843.75;5100197;28;20051;-50
2022/01/31 02:07:25;;;;;;;2.72;1.55;;;;;;;16.61;42.25;100833.13;5104116;28;20028;-46
2022/01/31 02:09:55;;;;;;;2.28;1.70;;;;;;;16.59;42.26;100816.38;5103874;28;20046;-51
2022/01/31 02:12:20;;;;;;;2.10;1.58;;;;;;;16.58;42.24;100809.31;5103622;28;20076;-51
2022/01/31 02:14:45;;;;;;;2.25;1.38;;;;;;;16.58;42.11;100803.94;5104509;28;20785;-48
2022/01/31 02:17:10;;;;;;;1.92;1.60;;;;;;;16.56;42.27;100795.19;5104425;28;20126;-51
2022/01/31 02:19:36;;;;;;;2.10;1.52;;;;;;;16.55;42.28;100788.97;5104309;28;20106;-47
2022/01/31 02:22:01;;;;;;;2.42;1.85;;;;;;;16.53;42.27;100782.94;5103866;28;20026;-52
2022/01/31 02:24:28;;;;;;;2.65;1.80;;;;;;;16.52;42.14;100770.50;5080538;28;20032;-49
2022/01/31 02:26:53;;;;;;;3.20;1.95;;;;;;;16.54;42.04;100765.00;5083182;28;20040;-48
2022/01/31 02:29:18;;;;;;;1.75;1.50;;;;;;;16.52;42.28;100753.56;5083871;28;20114;-49
2022/01/31 02:31:45;;;;;;;1.92;1.45;;;;;;;16.52;42.24;100745.50;5083822;28;20032;-47
2022/01/31 02:34:10;;;;;;;1.98;1.48;;;;;;;16.50;42.14;100729.56;5095395;28;20035;-47
2022/01/31 02:36:37;;;;;;;2.22;1.65;;;;;;;16.49;42.25;100717.16;5103665;28;20023;-48
2022/01/31 02:39:04;;;;;;;1.77;1.35;;;;;;;16.44;42.34;100703.38;5103926;28;20428;-51
2022/01/31 02:41:30;;;;;;;2.60;1.70;;;;;;;16.49;42.25;100711.78;5102747;28;20047;-50
2022/01/31 02:43:56;;;;;;;2.22;1.50;;;;;;;16.47;42.28;100706.56;5103785;28;20036;-49
2022/01/31 02:46:26;;;;;;;3.50;1.80;;;;;;;16.47;42.38;100690.47;5103952;28;20638;-48
2022/01/31 02:48:53;;;;;;;2.80;1.67;;;;;;;16.46;42.23;100682.59;5103850;28;20085;-48
2022/01/31 02:51:24;;;;;;;1.98;1.63;;;;;;;16.46;42.32;100679.91;5103610;28;20084;-51
2022/01/31 02:53:49;;;;;;;2.03;1.48;;;;;;;16.45;42.45;100671.00;5103541;28;20043;-47
2022/01/31 02:56:15;;;;;;;1.60;1.38;;;;;;;16.43;42.22;100662.25;5102585;28;20089;-49
2022/01/31 02:58:40;;;;;;;1.55;1.45;;;;;;;16.44;42.35;100663.13;5103922;28;20055;-47
2022/01/31 03:01:05;;;;;;;2.15;1.52;;;;;;;16.42;42.48;100640.97;5103037;28;20049;-49
2022/01/31 03:03:31;;;;;;;1.50;1.40;;;;;;;16.40;42.34;100637.63;5103786;28;20031;-46
2022/01/31 03:05:56;;;;;;;2.13;1.40;;;;;;;16.41;42.34;100624.03;5085321;28;20063;-47
2022/01/31 03:08:23;;;;;;;1.52;1.20;;;;;;;16.37;42.42;100624.50;5103369;28;20743;-50
2022/01/31 03:10:48;;;;;;;1.73;1.40;;;;;;;16.40;42.39;100619.66;5102579;28;20039;-45
2022/01/31 03:13:14;;;;;;;1.70;1.40;;;;;;;16.40;42.34;100617.00;5103525;28;20056;-47
2022/01/31 03:15:39;;;;;;;1.42;1.27;;;;;;;16.40;42.40;100600.06;5103591;28;20035;-50
2022/01/31 03:18:05;;;;;;;1.70;1.50;;;;;;;16.39;42.33;100593.81;5103519;28;20020;-49
2022/01/31 03:20:31;;;;;;;1.90;1.50;;;;;;;16.37;42.36;100592.31;5103875;28;20020;-50
2022/01/31 03:22:56;;;;;;;1.83;1.40;;;;;;;16.36;42.43;100583.44;5084802;28;20024;-47
2022/01/31 03:25:22;;;;;;;1.90;1.40;;;;;;;16.38;42.53;100585.94;5103084;28;20048;-49
2022/01/31 03:27:48;;;;;;;1.38;1.27;;;;;;;16.39;42.43;100584.94;5102958;28;20032;-48
2022/01/31 03:30:16;;;;;;;2.40;1.40;;;;;;;16.40;42.34;100581.25;5103381;28;20106;-47
2022/01/31 03:32:41;;;;;;;2.17;1.50;;;;;;;16.38;42.29;100568.00;5085444;28;20028;-46
2022/01/31 03:35:07;;;;;;;1.80;1.25;;;;;;;16.39;42.54;100572.34;5085187;28;20039;-47
2022/01/31 03:37:33;;;;;;;2.15;1.25;;;;;;;16.40;42.29;100557.13;5084968;28;20091;-47
2022/01/31 03:39:58;;;;;;;1.85;1.40;;;;;;;16.39;42.37;100556.25;5068207;28;20486;-51
2022/01/31 03:42:24;;;;;;;1.55;1.30;;;;;;;16.39;42.41;100553.56;5102644;28;20093;-49
2022/01/31 03:44:49;;;;;;;1.90;1.30;;;;;;;16.39;42.41;100575.03;5085087;28;20024;-47
2022/01/31 03:47:16;;;;;;;2.22;1.33;;;;;;;16.39;42.49;100560.78;5103167;28;20092;-50
2022/01/31 03:49:41;;;;;;;1.35;1.10;;;;;;;16.39;42.39;100561.63;5103315;28;20020;-46
2022/01/31 03:52:06;;;;;;;2.85;1.58;;;;;;;16.39;42.53;100550.88;5084960;28;20453;-47
2022/01/31 03:54:31;;;;;;;1.67;1.25;;;;;;;16.40;42.35;100549.91;5103009;28;20028;-48
2022/01/31 03:56:57;;;;;;;4.28;1.73;;;;;;;16.39;42.35;100553.56;5102233;28;20173;-48
2022/01/31 03:59:22;;;;;;;1.83;1.30;;;;;;;16.40;42.35;100541.03;5103348;28;20150;-48
2022/01/31 04:01:47;;;;;;;2.00;1.58;;;;;;;16.39;42.32;100542.84;5102727;28;20063;-49
2022/01/31 04:04:13;;;;;;;1.45;1.35;;;;;;;16.40;42.26;100538.34;5103012;28;20024;-50
2022/01/31 04:06:39;;;;;;;1.48;1.33;;;;;;;16.38;42.37;100535.78;5104214;28;20061;-50
2022/01/31 04:09:04;;;;;;;1.38;1.20;;;;;;;16.34;42.25;100534.44;5106703;28;20044;-52
2022/01/31 04:11:30;;;;;;;1.48;1.38;;;;;;;16.39;42.29;100542.84;5105739;28;20028;-49
2022/01/31 04:13:55;;;;;;;1.98;1.10;;;;;;;16.38;42.24;100538.47;5106815;28;20020;-48
2022/01/31 04:16:20;;;;;;;1.98;1.40;;;;;;;16.38;42.13;100533.09;5106937;28;20096;-47
2022/01/31 04:18:46;;;;;;;2.38;1.30;;;;;;;16.40;42.19;100527.59;5088431;28;20028;-47
2022/01/31 04:21:12;;;;;;;1.35;1.25;;;;;;;16.39;42.26;100525.91;5106387;28;20031;-48
2022/01/31 04:23:38;;;;;;;1.52;1.13;;;;;;;16.40;42.32;100523.06;5106541;28;20524;-51
2022/01/31 04:26:10;;;;;;;1.48;1.17;;;;;;;16.40;42.28;100528.44;5105164;28;20054;-48
2022/01/31 04:28:43;;;;;;;2.38;1.50;;;;;;;16.41;42.27;100513.19;5106827;28;20024;-48
2022/01/31 04:31:34;;;;;;;1.95;1.30;;;;;;;16.40;42.25;100519.56;5106081;28;20103;-46
2022/01/31 04:33:59;;;;;;;1.20;1.10;;;;;;;16.39;42.53;100510.63;5106172;28;20032;-50
2022/01/31 04:36:24;;;;;;;1.45;1.35;;;;;;;16.40;42.21;100512.34;5105918;28;20024;-48
2022/01/31 04:38:50;;;;;;;1.90;1.25;;;;;;;16.37;42.37;100512.66;5106339;28;20508;-52
2022/01/31 04:41:15;;;;;;;2.28;1.17;;;;;;;16.39;42.33;100512.47;5104944;28;20024;-49
2022/01/31 04:43:42;;;;;;;1.52;1.20;;;;;;;16.36;42.26;100512.81;5106015;28;20058;-50
2022/01/31 04:46:09;;;;;;;1.52;1.20;;;;;;;16.39;42.35;100505.28;5105977;28;20035;-51
2022/01/31 04:48:34;;;;;;;2.10;1.45;;;;;;;16.39;42.22;100505.28;5106018;28;20024;-48
2022/01/31 04:50:59;;;;;;;1.88;1.30;;;;;;;16.39;42.23;100501.75;5105793;28;20047;-50
2022/01/31 04:53:25;;;;;;;1.05;0.95;;;;;;;16.39;42.26;100497.22;5106030;28;20031;-50
2022/01/31 04:55:50;;;;;;;1.77;1.00;;;;;;;16.39;42.28;100494.53;5104783;28;20733;-48
2022/01/31 04:58:16;;;;;;;1.23;1.10;;;;;;;16.35;42.17;100485.13;5105923;28;20088;-46
2022/01/31 05:00:41;;;;;;;1.80;1.38;;;;;;;16.39;42.29;100489.16;5087391;28;20031;-49
2022/01/31 05:03:15;;;;;;;1.25;1.00;;;;;;;16.38;42.22;100490.19;5105837;28;20055;-50
2022/01/31 05:05:41;;;;;;;1.50;1.20;;;;;;;16.38;42.22;100479.44;5105388;28;20063;-46
2022/01/31 05:08:08;;;;;;;2.13;1.13;;;;;;;16.39;42.20;100475.75;5105395;28;20032;-48
2022/01/31 05:10:34;;;;;;;1.73;1.33;;;;;;;16.38;42.18;100466.03;5105153;28;20644;-49
2022/01/31 05:13:00;;;;;;;1.83;1.10;;;;;;;16.39;42.21;100461.50;5104975;28;20024;-48
2022/01/31 05:15:25;;;;;;;2.40;1.27;;;;;;;16.36;42.28;100451.97;5105616;28;20144;-50
2022/01/31 05:17:50;;;;;;;2.00;1.10;;;;;;;16.40;42.15;100463.22;5104480;28;20453;-49
2022/01/31 05:20:15;;;;;;;1.30;1.10;;;;;;;16.39;42.20;100453.47;5105522;28;20042;-48
2022/01/31 05:22:41;;;;;;;1.48;1.20;;;;;;;16.40;42.22;100445.25;5105104;28;20081;-49
2022/01/31 05:25:06;;;;;;;1.48;0.90;;;;;;;16.39;42.14;100454.28;5104734;28;20089;-52
2022/01/31 05:27:31;;;;;;;1.58;1.20;;;;;;;16.40;42.16;100457.84;5104813;28;20028;-51
2022/01/31 05:29:57;;;;;;;1.77;1.10;;;;;;;16.39;42.16;100451.59;5105008;28;20044;-48
2022/01/31 05:32:23;;;;;;;1.73;1.25;;;;;;;16.39;42.20;100451.59;5105245;28;20028;-52
2022/01/31 05:34:48;;;;;;;1.25;1.13;;;;;;;16.40;42.16;100452.47;5105110;28;20035;-45
2022/01/31 05:37:13;;;;;;;3.10;1.80;;;;;;;16.40;42.20;100457.84;5104586;28;20027;-52
2022/01/31 05:39:39;;;;;;;1.20;1.10;;;;;;;16.41;42.07;100444.25;5105274;28;20044;-49
2022/01/31 05:42:05;;;;;;;2.42;1.23;;;;;;;16.38;42.06;100449.94;5103883;28;20027;-47
2022/01/31 05:44:30;;;;;;;1.83;1.20;;;;;;;16.40;42.08;100437.22;5104632;28;20130;-46
2022/01/31 05:46:55;;;;;;;1.50;1.13;;;;;;;16.43;42.03;100426.13;5104949;28;20032;-48
2022/01/31 05:49:21;;;;;;;2.67;1.55;;;;;;;16.43;42.17;100420.75;5086498;28;20129;-50
2022/01/31 05:52:01;;;;;;;1.67;1.10;;;;;;;16.44;42.03;100425.16;5104644;28;20064;-50
2022/01/31 05:54:27;;;;;;;1.92;1.10;;;;;;;16.43;42.10;100418.09;5104925;28;20032;-49
2022/01/31 05:56:52;;;;;;;1.80;1.00;;;;;;;16.44;42.15;100429.69;5103636;28;20028;-51
2022/01/31 05:59:17;;;;;;;2.30;1.23;;;;;;;16.44;42.08;100427.84;5104283;28;20039;-45
2022/01/31 06:01:42;;;;;;;2.42;1.25;;;;;;;16.44;42.04;100418.94;5104648;28;20032;-49
2022/01/31 06:04:08;;;;;;;1.83;1.30;;;;;;;16.45;42.25;100423.31;5104318;28;20044;-52
2022/01/31 06:06:34;;;;;;;2.17;1.20;;;;;;;16.46;42.04;100423.13;5094274;28;20051;-50
2022/01/31 06:08:59;;;;;;;2.63;1.15;;;;;;;16.45;42.15;100416.09;5083788;28;20024;-52
2022/01/31 06:11:27;;;;;;;2.42;1.45;;;;;;;16.47;42.00;100418.59;5082971;28;20025;-51
2022/01/31 06:13:55;;;;;;;2.05;1.30;;;;;;;16.46;41.89;100414.25;5084076;28;20099;-52
2022/01/31 06:16:20;;;;;;;1.65;1.15;;;;;;;16.46;41.96;100415.06;5083346;28;20023;-51
2022/01/31 06:18:46;;;;;;;1.73;1.10;;;;;;;16.47;42.09;100413.22;5084105;28;20048;-50
2022/01/31 06:21:12;;;;;;;1.65;1.10;;;;;;;16.47;41.69;100403.34;5083505;28;20024;-48
2022/01/31 06:23:38;;;;;;;3.33;1.35;;;;;;;16.46;41.99;100401.66;5083829;28;20116;-50
2022/01/31 06:26:03;;;;;;;2.10;1.13;;;;;;;16.44;41.98;100395.63;5082762;28;20541;-49
2022/01/31 06:28:28;;;;;;;2.03;1.13;;;;;;;16.46;42.06;100393.63;5083754;28;20039;-46
2022/01/31 06:30:53;;;;;;;1.67;1.20;;;;;;;16.46;42.31;100396.28;5099505;28;20032;-47
2022/01/31 06:33:18;;;;;;;2.38;1.33;;;;;;;16.47;41.99;100389.09;5104031;28;20036;-47
2022/01/31 06:35:44;;;;;;;1.83;1.05;;;;;;;16.48;42.01;100394.31;5103866;28;20028;-48
2022/01/31 06:38:09;;;;;;;1.58;1.23;;;;;;;16.48;41.98;100382.69;5103573;28;20047;-49
2022/01/31 06:40:34;;;;;;;1.52;1.00;;;;;;;16.49;42.02;100379.03;5103724;28;20038;-49
2022/01/31 06:43:00;;;;;;;2.30;1.23;;;;;;;16.49;42.02;100377.19;5102512;28;20036;-49
2022/01/31 06:45:25;;;;;;;2.42;1.40;;;;;;;16.52;42.12;100369.78;5103510;28;20104;-49
2022/01/31 06:47:50;;;;;;;1.73;1.17;;;;;;;16.53;42.14;100366.97;5103429;28;20020;-50
2022/01/31 06:50:15;;;;;;;1.33;1.20;;;;;;;16.52;42.01;100367.13;5095745;28;20122;-48
2022/01/31 06:52:42;;;;;;;1.75;1.13;;;;;;;16.54;42.13;100371.31;5089880;28;20020;-51
2022/01/31 06:55:09;;;;;;;2.70;1.10;;;;;;;16.54;41.95;100360.59;5083242;28;20028;-47
2022/01/31 06:57:35;;;;;;;2.15;1.20;;;;;;;16.54;42.16;100359.75;5090741;28;20483;-48
2022/01/31 07:00:05;;;;;;;1.98;1.20;;;;;;;16.56;42.18;100371.97;5084153;28;20029;-50
2022/01/31 07:02:30;;;;;;;2.70;1.27;;;;;;;16.57;42.18;100365.63;5083215;28;20020;-50
2022/01/31 07:04:55;;;;;;;1.55;1.10;;;;;;;16.57;42.20;100357.59;5083037;28;20066;-47
2022/01/31 07:07:21;;;;;;;1.25;1.10;;;;;;;16.57;42.07;100354.91;5082966;28;20040;-51
2022/01/31 07:09:46;;;;;;;1.80;1.10;;;;;;;16.59;42.11;100357.41;5083222;28;20024;-48
2022/01/31 07:12:12;;;;;;;3.25;1.27;;;;;;;16.61;42.31;100371.47;5082241;28;20061;-52
2022/01/31 07:14:38;;;;;;;3.60;1.27;;;;;;;16.64;42.29;100355.06;5084611;28;20051;-49
2022/01/31 07:17:05;;;;;;;3.13;1.73;;;;;;;16.68;42.39;100351.03;5103292;28;20020;-48
2022/01/31 07:19:33;;;;;;;2.97;1.48;;;;;;;16.72;42.30;100352.38;5103207;28;20469;-51
2022/01/31 07:21:59;;;;;;;4.38;1.80;;;;;;;16.76;42.26;100348.38;5102748;28;20042;-51
2022/01/31 07:24:44;;;;;;;3.55;1.60;;;;;;;16.78;42.20;100351.75;5102745;28;20020;-49
2022/01/31 07:27:09;;;;;;;4.00;1.70;;;;;;;16.79;42.20;100360.63;5101837;28;20020;-51
2022/01/31 07:29:34;;;;;;;2.75;1.50;;;;;;;16.84;42.16;100351.06;5101495;28;20144;-49
2022/01/31 07:32:01;;;;;;;3.28;1.77;;;;;;;16.86;42.11;100343.66;5087054;28;20131;-49
2022/01/31 07:34:26;;;;;;;3.40;1.42;;;;;;;16.87;42.04;100340.00;5082887;28;20029;-48
2022/01/31 07:36:52;;;;;;;5.65;2.40;;;;;;;16.90;42.19;100338.78;5082521;28;20021;-52
2022/01/31 07:39:19;;;;;;;3.90;1.75;;;;;;;16.91;42.26;100338.66;5072019;28;20392;-50
2022/01/31 07:41:45;;;;;;;2.97;1.50;;;;;;;16.91;42.18;100333.28;5103779;28;20077;-50
2022/01/31 07:44:11;;;;;;;4.45;1.73;;;;;;;16.94;42.13;100318.66;5089794;28;20084;-48
2022/01/31 07:46:36;;;;;;;3.05;1.70;;;;;;;16.93;42.14;100327.72;5106693;28;20085;-48
2022/01/31 07:49:03;;;;;;;2.03;1.20;;;;;;;16.95;42.09;100323.88;5088250;28;20088;-51
2022/01/31 07:51:28;;;;;;;3.95;1.45;;;;;;;16.93;42.14;100309.75;5094997;28;20103;-50
2022/01/31 07:53:53;;;;;;;4.32;1.50;;;;;;;16.97;42.09;100329.91;5086434;28;20048;-53
2022/01/31 07:56:20;;;;;;;2.83;1.60;;;;;;;16.98;42.15;100333.41;5092847;28;20024;-50
2022/01/31 07:58:45;;;;;;;3.47;1.35;;;;;;;16.96;42.02;100332.78;5106534;28;20023;-51
2022/01/31 08:01:11;;;;;;;2.70;1.58;;;;;;;16.97;42.14;100321.84;5106099;28;20024;-50
2022/01/31 08:03:37;;;;;;;4.05;1.50;;;;;;;17.02;41.92;100313.28;5106204;28;20399;-51
2022/01/31 08:06:03;;;;;;;2.75;1.63;;;;;;;17.02;41.99;100315.97;5100149;28;20051;-51
2022/01/31 08:08:29;;;;;;;5.30;1.75;;;;;;;17.03;41.96;100322.16;5087653;28;20030;-51
2022/01/31 08:10:55;;;;;;;3.83;1.60;;;;;;;17.06;41.93;100319.16;5104994;28;20065;-46
2022/01/31 08:13:20;;;;;;;3.95;1.80;;;;;;;17.06;41.92;100328.03;5106009;28;20024;-50
2022/01/31 08:16:01;;;;;;;4.28;1.83;;;;;;;17.09;41.72;100321.50;5106070;28;20039;-46
2022/01/31 08:18:26;;;;;;;2.05;1.40;;;;;;;17.10;41.51;100331.22;5097155;28;20033;-50
2022/01/31 08:20:52;;;;;;;4.25;1.48;;;;;;;17.10;41.83;100337.44;5086141;28;20078;-47
2022/01/31 08:23:17;;;;;;;3.20;1.55;;;;;;;17.10;41.94;100315.94;5101117;28;20734;-50
2022/01/31 08:25:47;;;;;;;2.75;1.50;;;;;;;17.12;41.85;100331.88;5089779;28;20036;-45
2022/01/31 08:28:13;;;;;;;4.82;1.80;;;;;;;17.13;41.97;100329.03;5099839;28;20078;-47
2022/01/31 08:30:54;;;;;;;4.55;1.83;;;;;;;17.15;41.95;100328.88;5073979;28;20020;-46
2022/01/31 08:33:34;;;;;;;4.40;1.75;;;;;;;17.11;42.04;100336.41;5086900;28;20123;-47
2022/01/31 08:36:01;;;;;;;3.10;1.50;;;;;;;17.19;41.96;100340.94;5100234;28;20028;-43
2022/01/31 08:38:26;;;;;;;3.55;1.73;;;;;;;17.20;41.89;100339.94;5068707;28;20917;-46
2022/01/31 08:40:52;;;;;;;3.80;1.58;;;;;;;17.21;41.78;100366.63;5075685;28;20032;-42
2022/01/31 08:43:17;;;;;;;4.07;1.52;;;;;;;17.19;41.98;100346.31;5083236;28;20028;-48
2022/01/31 08:45:43;;;;;;;3.88;1.60;;;;;;;17.24;42.01;100352.00;5103596;28;20024;-47
2022/01/31 08:48:08;;;;;;;4.25;1.83;;;;;;;17.24;41.78;100355.53;5103463;28;20059;-46
2022/01/31 08:50:34;;;;;;;4.20;1.65;;;;;;;17.24;41.90;100366.28;5103380;28;20067;-46
2022/01/31 08:52:59;;;;;;;3.83;1.73;;;;;;;17.23;41.78;100342.28;5098291;28;20036;-41
2022/01/31 08:55:25;;;;;;;3.45;1.60;;;;;;;17.28;41.73;100342.59;5080524;28;20020;-47
2022/01/31 08:57:53;;;;;;;4.88;1.70;;;;;;;17.30;41.79;100355.88;5097692;28;20030;-44
2022/01/31 09:00:20;;;;;;;4.20;1.60;;;;;;;17.30;41.75;100345.97;5102866;28;20553;-46
2022/01/31 09:03:00;;;;;;;4.45;1.90;;;;;;;17.33;41.73;100344.78;5101854;28;20035;-49
2022/01/31 09:05:25;;;;;;;4.60;1.67;;;;;;;17.31;41.75;100349.50;5102810;28;20109;-44
2022/01/31 09:07:51;;;;;;;3.67;1.40;;;;;;;17.32;41.98;100373.50;5102073;28;20036;-48
2022/01/31 09:10:18;;;;;;;3.78;1.77;;;;;;;17.38;41.66;100356.69;5102613;28;20031;-44
2022/01/31 09:12:43;;;;;;;3.22;1.60;;;;;;;17.40;41.46;100365.41;5081824;28;20016;-50
2022/01/31 09:15:12;;;;;;;3.45;1.85;;;;;;;17.39;41.73;100382.56;5098569;28;20448;-46
2022/01/31 09:17:37;;;;;;;5.82;1.77;;;;;;;17.43;41.81;100391.13;5102705;28;20477;-45
2022/01/31 09:20:05;;;;;;;3.10;1.30;;;;;;;17.38;41.64;100375.50;5099511;28;20043;-48
2022/01/31 09:22:30;;;;;;;4.45;1.65;;;;;;;17.47;41.71;100393.28;5074898;28;20084;-47
2022/01/31 09:24:56;;;;;;;4.85;2.00;;;;;;;17.45;41.72;100383.72;5096881;28;20039;-44
2022/01/31 09:27:21;;;;;;;3.35;1.52;;;;;;;17.48;41.48;100375.31;5072524;28;20063;-45
2022/01/31 09:29:46;;;;;;;2.97;1.33;;;;;;;17.52;41.43;100390.09;5075346;28;20369;-53
2022/01/31 09:32:12;;;;;;;4.13;1.75;;;;;;;17.53;41.77;100407.03;5102433;28;20024;-46
2022/01/31 09:34:38;;;;;;;5.70;2.22;;;;;;;17.56;41.53;100393.28;5084486;28;20032;-45
2022/01/31 09:37:04;;;;;;;3.80;1.30;;;;;;;17.56;41.75;100410.22;5098045;28;20476;-45
2022/01/31 09:39:30;;;;;;;3.30;1.40;;;;;;;17.58;41.63;100428.88;5094095;28;20047;-45
2022/01/31 09:41:57;;;;;;;3.10;1.50;;;;;;;17.60;41.50;100430.38;5094627;28;20083;-53
2022/01/31 09:44:39;;;;;;;3.70;1.55;;;;;;;17.65;41.52;100448.69;5097932;28;20369;-45
2022/01/31 09:47:18;;;;;;;2.92;2.13;;;;;;;17.66;41.60;100456.56;5099647;28;20102;-45
2022/01/31 09:49:44;;;;;;;4.30;1.60;;;;;;;17.66;41.60;100469.19;5099969;28;20028;-47
2022/01/31 09:52:09;;;;;;;2.40;1.13;;;;;;;17.67;41.46;100463.66;5097451;28;20032;-47
2022/01/31 09:54:34;;;;;;;2.65;1.30;;;;;;;17.62;41.47;100452.53;5097799;28;20645;-51
2022/01/31 09:56:59;;;;;;;3.00;1.30;;;;;;;17.70;41.51;100462.44;5096957;28;20032;-48
2022/01/31 09:59:24;;;;;;;3.15;1.42;;;;;;;17.68;41.64;100481.44;5083965;28;20052;-44
2022/01/31 10:01:52;;;;;;;3.20;1.67;;;;;;;17.71;41.50;100491.88;5078837;28;20162;-54
2022/01/31 10:04:28;;;;;;;3.83;1.67;;;;;;;17.72;41.53;100508.84;5088286;28;20064;-48
2022/01/31 10:06:55;;;;;;;3.95;2.15;;;;;;;17.72;41.46;100509.69;5085526;28;20776;-47
2022/01/31 10:09:24;;;;;;;4.93;1.58;;;;;;;17.72;41.48;100515.06;5081161;28;20036;-52
2022/01/31 10:12:04;;;;;;;4.93;1.50;;;;;;;17.74;41.70;100517.59;5086153;28;20079;-49
2022/01/31 10:17:30;;;;;;;2.33;1.45;;;;;;;17.77;41.59;100524.50;5088297;28;20035;-52
2022/01/31 10:20:01;;;;;;;6.22;1.80;;;;;;;17.77;41.25;100527.19;5103857;28;20028;-51
2022/01/31 10:22:31;;;;;;;3.45;1.40;;;;;;;17.77;41.50;100533.41;5104128;28;20035;-53
2022/01/31 10:24:59;;;;;;;3.45;1.65;;;;;;;17.79;41.49;100547.50;5085774;28;20036;-49
2022/01/31 10:27:29;;;;;;;3.17;1.60;;;;;;;17.80;41.54;100540.25;5103113;28;20051;-52
2022/01/31 10:30:07;;;;;;;4.45;1.27;;;;;;;17.81;41.41;100558.94;5104124;28;20053;-47
2022/01/31 10:32:34;;;;;;;3.92;1.50;;;;;;;17.82;41.24;100554.41;5088200;28;20035;-45
2022/01/31 10:35:01;;;;;;;2.55;1.27;;;;;;;17.83;41.40;100554.22;5081746;28;20515;-47
2022/01/31 10:37:30;;;;;;;2.50;1.20;;;;;;;17.85;41.44;100570.19;5099939;28;20031;-48
2022/01/31 10:53:37;;;;;;;3.47;1.40;;;;;;;17.87;41.41;100579.75;5100364;28;20529;-48
2022/01/31 10:56:03;;;;;;;2.80;1.30;;;;;;;17.93;41.44;100578.25;5081145;28;20385;-50
2022/01/31 10:58:30;;;;;;;3.10;1.48;;;;;;;17.94;41.46;100571.88;5084269;28;20051;-52
2022/01/31 11:01:10;;;;;;;3.25;1.50;;;;;;;17.97;41.29;100575.06;5103371;28;20032;-49
2022/01/31 11:03:36;;;;;;;2.95;1.45;;;;;;;17.99;41.36;100580.25;5073597;28;20070;-44
2022/01/31 11:06:05;;;;;;;3.67;1.88;;;;;;;18.04;41.28;100588.66;5099135;28;20048;-44
2022/01/31 11:08:30;;;;;;;3.53;1.38;;;;;;;18.06;41.35;100583.13;5093968;28;20490;-48
2022/01/31 11:10:59;;;;;;;3.05;1.48;;;;;;;18.08;41.13;100587.28;5079373;28;20054;-53
2022/01/31 11:13:26;;;;;;;3.80;1.50;;;;;;;18.11;41.15;100591.50;5092612;28;20035;-48
2022/01/31 11:15:53;;;;;;;3.17;1.40;;;;;;;18.13;41.15;100586.78;5100170;28;20028;-53
2022/01/31 11:18:20;;;;;;;2.70;1.20;;;;;;;18.15;41.20;100591.00;5072114;28;20055;-47
2022/01/31 11:20:48;;;;;;;5.35;1.70;;;;;;;18.16;41.08;100599.91;5106956;28;20081;-53
2022/01/31 11:23:14;;;;;;;2.63;1.40;;;;;;;18.18;41.08;100605.94;5107562;28;20031;-50
2022/01/31 11:25:40;;;;;;;4.80;1.40;;;;;;;18.20;41.23;100602.06;5088895;28;20028;-50
2022/01/31 11:28:06;;;;;;;5.47;1.40;;;;;;;18.22;41.08;100610.84;5107134;28;20032;-50
2022/01/31 11:30:31;;;;;;;3.05;1.70;;;;;;;18.25;41.29;100606.94;5089249;28;20085;-51
2022/01/31 11:32:57;;;;;;;3.63;1.40;;;;;;;18.30;41.12;100620.72;5107245;28;20032;-52
2022/01/31 11:35:22;;;;;;;5.07;1.65;;;;;;;18.33;41.00;100620.38;5107277;28;20480;-48
2022/01/31 11:37:49;;;;;;;4.28;1.65;;;;;;;18.35;40.82;100623.75;5106390;28;20026;-50
2022/01/31 11:40:15;;;;;;;4.32;1.63;;;;;;;18.37;40.83;100623.56;5099125;28;20028;-50